Time;durP1;ratioP1;P1;durP2;ratioP2;P2;SDS_P1;SDS_P2;PMS_P1;PMS_P2;Temp;Humidity;BMP_temperature;BMP_pressure;BME280_temperature;BME280_humidity;BME280_pressure;Samples;Min_cycle;Max_cycle;Signal;HPM_P1;HPM_P2
2021/06/15 00:00:01;;;;;;;3.90;3.05;;;17.90;87.90;;;;;;4924996;29;20474;-71
2021/06/15 00:02:28;;;;;;;4.93;3.33;;;17.90;90.50;;;;;;4929210;29;20391;-71
2021/06/15 00:04:56;;;;;;;5.10;3.65;;;18.10;90.20;;;;;;4922914;29;20386;-70
2021/06/15 00:07:23;;;;;;;6.60;4.38;;;18.00;90.00;;;;;;4926084;29;20027;-72
2021/06/15 00:09:50;;;;;;;4.30;3.47;;;17.70;91.70;;;;;;4922979;29;20538;-70
2021/06/15 00:12:18;;;;;;;4.43;3.95;;;17.50;91.10;;;;;;4924030;29;20023;-72
2021/06/15 00:14:46;;;;;;;7.43;3.83;;;17.40;91.50;;;;;;4926147;29;20068;-71
2021/06/15 00:17:13;;;;;;;6.90;3.55;;;17.90;90.80;;;;;;4925555;29;20040;-70
2021/06/15 00:19:41;;;;;;;3.90;2.97;;;17.70;90.60;;;;;;4927279;29;20052;-70
2021/06/15 00:22:08;;;;;;;5.22;3.00;;;17.50;90.80;;;;;;4927546;29;20106;-71
2021/06/15 00:24:36;;;;;;;4.88;3.15;;;17.40;91.90;;;;;;4922983;29;20047;-71
2021/06/15 00:27:04;;;;;;;4.22;2.67;;;17.60;91.30;;;;;;4924307;29;20052;-72
2021/06/15 00:29:31;;;;;;;4.18;3.20;;;17.70;91.50;;;;;;4923637;29;20035;-68
2021/06/15 00:31:58;;;;;;;3.95;2.80;;;17.50;91.20;;;;;;4924322;29;20023;-71
2021/06/15 00:34:26;;;;;;;4.18;2.78;;;17.40;91.90;;;;;;4923987;29;20063;-70
2021/06/15 00:36:53;;;;;;;3.20;2.35;;;17.20;91.90;;;;;;4922772;29;20028;-71
2021/06/15 00:39:20;;;;;;;3.95;3.17;;;16.90;92.10;;;;;;4924994;29;20036;-72
2021/06/15 00:41:48;;;;;;;5.70;3.17;;;16.70;92.10;;;;;;4927439;29;20023;-71
2021/06/15 00:44:15;;;;;;;4.10;3.10;;;16.60;92.70;;;;;;4909879;29;20255;-71
2021/06/15 00:46:43;;;;;;;4.35;2.83;;;16.60;93.10;;;;;;4923990;29;20082;-70
2021/06/15 00:49:14;;;;;;;3.92;2.28;;;16.70;93.90;;;;;;4925457;29;20031;-71
2021/06/15 00:51:41;;;;;;;3.33;2.60;;;16.50;92.60;;;;;;4926447;29;20406;-70
2021/06/15 00:54:10;;;;;;;3.70;2.67;;;16.50;92.80;;;;;;4927261;29;20020;-72
2021/06/15 00:56:38;;;;;;;4.80;3.10;;;16.50;92.80;;;;;;4923675;29;20028;-71
2021/06/15 00:59:05;;;;;;;4.88;2.75;;;16.50;92.70;;;;;;4928054;29;20035;-71
2021/06/15 01:01:33;;;;;;;3.88;2.38;;;16.80;92.70;;;;;;4926871;29;20048;-73
2021/06/15 01:04:01;;;;;;;1.98;1.52;;;18.70;92.20;;;;;;4923972;29;20046;-71
2021/06/15 01:06:49;;;;;;;2.40;1.23;;;19.80;88.00;;;;;;4924090;29;20546;-73
2021/06/15 01:09:40;;;;;;;3.65;1.30;;;20.70;83.50;;;;;;4926762;29;20098;-73
2021/06/15 01:12:43;;;;;;;0.98;0.80;;;22.10;81.30;;;;;;4933506;29;20036;-72
2021/06/15 01:15:19;;;;;;;1.63;0.80;;;23.20;77.20;;;;;;4925989;29;20498;-70
2021/06/15 01:17:58;;;;;;;1.10;0.60;;;24.00;75.00;;;;;;4925566;29;20522;-70
2021/06/15 01:20:29;;;;;;;1.88;0.95;;;24.40;72.70;;;;;;4930971;29;20032;-71
2021/06/15 01:23:29;;;;;;;1.38;0.82;;;24.90;70.20;;;;;;4928664;29;20043;-72
2021/06/15 01:26:30;;;;;;;2.28;0.60;;;25.50;69.00;;;;;;4927110;29;20082;-71
2021/06/15 01:29:02;;;;;;;1.33;0.65;;;25.70;69.40;;;;;;4924741;29;20072;-71
2021/06/15 01:31:32;;;;;;;0.93;0.75;;;25.60;67.70;;;;;;4930473;29;20035;-71
2021/06/15 01:34:09;;;;;;;1.17;0.60;;;25.70;67.70;;;;;;4926686;29;20474;-71
2021/06/15 01:36:47;;;;;;;0.60;0.40;;;25.60;64.60;;;;;;4927201;29;20036;-72
2021/06/15 01:39:19;;;;;;;1.92;1.70;;;25.30;67.10;;;;;;4929525;29;20391;-72
2021/06/15 01:41:54;;;;;;;2.17;0.90;;;25.40;65.60;;;;;;4926314;29;20059;-73
2021/06/15 01:44:23;;;;;;;1.33;0.50;;;25.50;66.10;;;;;;4927825;29;20028;-72
2021/06/15 01:47:06;;;;;;;1.38;0.50;;;25.80;66.40;;;;;;4925509;29;20117;-70
2021/06/15 01:49:53;;;;;;;1.15;0.80;;;26.00;62.70;;;;;;4926564;29;20107;-71
2021/06/15 01:52:25;;;;;;;0.93;0.60;;;26.20;67.00;;;;;;4909522;29;20025;-71
2021/06/15 01:54:53;;;;;;;1.15;0.57;;;25.40;64.50;;;;;;4927348;29;20046;-72
2021/06/15 01:57:23;;;;;;;1.42;0.57;;;24.70;63.50;;;;;;4927432;29;20056;-72
2021/06/15 01:59:53;;;;;;;2.47;0.60;;;24.00;66.40;;;;;;4925569;29;20038;-72
2021/06/15 02:02:20;;;;;;;0.90;0.50;;;24.00;66.10;;;;;;4924683;29;20039;-72
2021/06/15 02:04:51;;;;;;;0.80;0.40;;;23.70;66.40;;;;;;4924412;29;20047;-71
2021/06/15 02:07:29;;;;;;;0.73;0.50;;;23.50;69.00;;;;;;4925940;29;20032;-71
2021/06/15 02:10:09;;;;;;;0.85;0.40;;;24.50;67.50;;;;;;4924093;29;20032;-70
2021/06/15 02:12:42;;;;;;;0.70;0.30;;;25.50;65.00;;;;;;4924635;29;20570;-71
2021/06/15 02:15:13;;;;;;;0.88;0.30;;;25.90;64.80;;;;;;4929071;29;20409;-71
2021/06/15 02:17:46;;;;;;;1.10;0.35;;;25.90;63.60;;;;;;4928766;29;20119;-71
2021/06/15 02:20:15;;;;;;;0.40;0.40;;;24.80;64.00;;;;;;4924139;29;20024;-71
2021/06/15 02:22:48;;;;;;;1.13;0.45;;;23.40;66.60;;;;;;4910733;29;20111;-72
2021/06/15 02:25:35;;;;;;;0.73;0.30;;;22.20;69.90;;;;;;4926568;29;20447;-73
2021/06/15 02:28:03;;;;;;;0.63;0.32;;;21.40;72.10;;;;;;4919206;29;20031;-71
2021/06/15 02:30:31;;;;;;;1.05;0.63;;;21.30;72.80;;;;;;4925374;29;20027;-73
2021/06/15 02:33:13;;;;;;;1.05;0.50;;;21.60;73.00;;;;;;4928977;29;20011;-71
2021/06/15 02:35:49;;;;;;;0.20;0.20;;;22.60;72.00;;;;;;4925090;29;20572;-69
2021/06/15 02:38:24;;;;;;;;;;;23.40;69.70;;;;;;4927391;29;20027;-72
2021/06/15 02:40:54;;;;;;;0.98;0.30;;;23.00;71.80;;;;;;4923337;29;19918;-71
2021/06/15 02:43:25;;;;;;;0.25;0.22;;;22.50;73.00;;;;;;4925474;29;20114;-71
2021/06/15 02:45:55;;;;;;;0.70;0.40;;;22.00;72.20;;;;;;4923042;29;20502;-70
2021/06/15 02:48:25;;;;;;;1.85;0.70;;;21.90;73.90;;;;;;4922862;29;20020;-73
2021/06/15 02:50:54;;;;;;;1.05;0.30;;;21.80;72.70;;;;;;4926330;29;20452;-70
2021/06/15 02:53:27;;;;;;;1.75;0.20;;;22.60;71.60;;;;;;4923854;29;20487;-71
2021/06/15 02:56:04;;;;;;;1.77;0.30;;;23.80;69.90;;;;;;4922725;29;20083;-73
2021/06/15 02:58:33;;;;;;;1.95;0.40;;;24.60;66.60;;;;;;4922496;29;20028;-72
2021/06/15 03:01:00;;;;;;;0.38;0.22;;;24.90;67.70;;;;;;4923914;29;20118;-71
2021/06/15 03:03:28;;;;;;;0.57;0.30;;;24.40;67.90;;;;;;4922038;29;20527;-70
2021/06/15 03:05:55;;;;;;;2.72;0.35;;;23.00;67.80;;;;;;4923398;29;20487;-68
2021/06/15 03:08:23;;;;;;;0.77;0.70;;;22.20;70.70;;;;;;4925784;29;20099;-70
2021/06/15 03:10:50;;;;;;;1.08;0.40;;;21.50;74.20;;;;;;4922844;29;20509;-70
2021/06/15 03:13:31;;;;;;;1.80;0.40;;;21.30;75.10;;;;;;4923855;29;20152;-70
2021/06/15 03:16:02;;;;;;;0.80;0.50;;;20.80;74.40;;;;;;4925258;29;20022;-70
2021/06/15 03:18:38;;;;;;;1.05;0.50;;;20.50;75.90;;;;;;4925304;29;20111;-73
2021/06/15 03:21:09;;;;;;;;;;;20.30;77.60;;;;;;4925714;29;20083;-70
2021/06/15 03:24:06;;;;;;;1.00;0.90;;;20.30;78.70;;;;;;4925051;29;19921;-70
2021/06/15 03:26:33;;;;;;;0.40;0.32;;;20.30;77.80;;;;;;4908955;29;20028;-70
2021/06/15 03:29:02;;;;;;;2.75;0.60;;;20.20;78.50;;;;;;4928321;29;20046;-71
2021/06/15 03:31:36;;;;;;;1.85;0.30;;;20.10;80.90;;;;;;4925090;29;20031;-72
2021/06/15 03:34:05;;;;;;;0.60;0.38;;;20.10;79.20;;;;;;4921932;29;20027;-70
2021/06/15 03:36:34;;;;;;;0.70;0.22;;;20.20;79.20;;;;;;4924675;29;20035;-70
2021/06/15 03:39:02;;;;;;;2.60;0.80;;;20.20;80.10;;;;;;4923320;29;20028;-71
2021/06/15 03:41:31;;;;;;;1.25;0.50;;;20.10;81.00;;;;;;4928806;29;20032;-71
2021/06/15 03:44:01;;;;;;;3.42;0.55;;;20.10;80.20;;;;;;4905063;29;20352;-71
2021/06/15 03:46:31;;;;;;;0.60;0.40;;;20.00;80.10;;;;;;4925745;29;20498;-71
2021/06/15 03:49:04;;;;;;;0.50;0.50;;;19.90;79.60;;;;;;4922680;29;20068;-71
2021/06/15 03:51:35;;;;;;;8.88;6.70;;;19.60;80.90;;;;;;4928606;29;20542;-72
2021/06/15 03:54:08;;;;;;;3.42;2.22;;;19.70;81.70;;;;;;4926180;29;20034;-71
2021/06/15 03:56:42;;;;;;;7.07;3.97;;;19.70;82.50;;;;;;4929406;29;20046;-72
2021/06/15 03:59:12;;;;;;;9.45;6.75;;;19.80;82.30;;;;;;4923798;29;20031;-71
2021/06/15 04:01:43;;;;;;;2.47;0.95;;;19.80;82.50;;;;;;4923064;29;20414;-70
2021/06/15 04:04:15;;;;;;;1.52;0.75;;;19.70;82.60;;;;;;4924079;29;20032;-71
2021/06/15 04:06:50;;;;;;;14.75;8.77;;;19.70;82.10;;;;;;4925051;29;20517;-71
2021/06/15 04:09:27;;;;;;;3.30;2.38;;;19.70;82.10;;;;;;4925651;29;20039;-72
2021/06/15 04:11:59;;;;;;;2.30;0.77;;;19.60;82.60;;;;;;4928949;29;20031;-71
2021/06/15 04:14:28;;;;;;;0.65;0.40;;;19.60;82.30;;;;;;4928850;29;20043;-69
2021/06/15 04:16:57;;;;;;;1.05;0.32;;;19.60;81.70;;;;;;4929810;29;20074;-71
2021/06/15 04:19:31;;;;;;;0.52;0.40;;;19.50;81.20;;;;;;4926684;29;20683;-70
2021/06/15 04:22:03;;;;;;;1.75;0.50;;;19.30;82.20;;;;;;4931569;29;20099;-69
2021/06/15 04:24:33;;;;;;;1.33;0.60;;;19.20;83.00;;;;;;4928269;29;20043;-70
2021/06/15 04:27:01;;;;;;;2.70;0.75;;;19.10;84.40;;;;;;4931590;29;20020;-69
2021/06/15 04:29:29;;;;;;;1.73;0.52;;;19.00;84.40;;;;;;4927127;29;20034;-69
2021/06/15 04:32:02;;;;;;;1.95;0.73;;;19.10;84.90;;;;;;4927801;29;20023;-71
2021/06/15 04:34:32;;;;;;;1.77;0.63;;;19.10;83.40;;;;;;4929206;29;20031;-74
2021/06/15 04:37:04;;;;;;;2.53;0.73;;;19.20;83.60;;;;;;4925668;29;20024;-71
2021/06/15 04:39:46;;;;;;;2.53;1.33;;;19.20;83.10;;;;;;4929622;29;20027;-74
2021/06/15 04:42:54;;;;;;;2.22;0.93;;;19.20;83.20;;;;;;4932236;29;20513;-74
2021/06/15 04:45:32;;;;;;;5.15;1.48;;;19.10;83.80;;;;;;4904359;29;20055;-70
2021/06/15 04:48:11;;;;;;;1.48;0.65;;;18.90;84.00;;;;;;4928333;29;20417;-72
2021/06/15 04:50:39;;;;;;;0.85;0.85;;;18.80;84.30;;;;;;4930287;29;20055;-75
2021/06/15 04:53:08;;;;;;;2.67;0.60;;;18.70;85.00;;;;;;4930074;29;20031;-71
2021/06/15 04:55:39;;;;;;;3.83;0.80;;;18.60;84.90;;;;;;4927685;29;20086;-70
2021/06/15 04:58:09;;;;;;;3.40;0.73;;;18.60;85.40;;;;;;4921883;29;20036;-73
2021/06/15 05:00:39;;;;;;;1.02;0.60;;;18.70;84.90;;;;;;4927888;29;20537;-73
2021/06/15 05:03:09;;;;;;;1.65;0.60;;;18.70;85.70;;;;;;4931562;29;20023;-71
2021/06/15 05:05:37;;;;;;;3.50;0.50;;;18.70;86.10;;;;;;4928023;29;20578;-71
2021/06/15 05:08:13;;;;;;;3.22;1.05;;;18.60;85.80;;;;;;4926573;29;20020;-72
2021/06/15 05:10:41;;;;;;;1.55;0.80;;;18.50;86.70;;;;;;4927583;29;20091;-71
2021/06/15 05:13:13;;;;;;;2.10;0.88;;;18.50;86.00;;;;;;4930888;29;20032;-73
2021/06/15 05:15:44;;;;;;;2.47;0.50;;;18.60;87.00;;;;;;4928015;29;20028;-71
2021/06/15 05:18:12;;;;;;;3.22;0.90;;;18.50;86.20;;;;;;4931171;29;20023;-72
2021/06/15 05:20:39;;;;;;;5.00;0.82;;;18.60;86.80;;;;;;4925397;29;20628;-72
2021/06/15 05:23:15;;;;;;;3.08;0.80;;;18.60;86.60;;;;;;4930876;29;20039;-72
2021/06/15 05:25:43;;;;;;;1.30;1.02;;;18.80;86.50;;;;;;4922744;29;20043;-71
2021/06/15 05:28:11;;;;;;;1.70;0.93;;;18.80;86.90;;;;;;4931823;29;20035;-69
2021/06/15 05:30:39;;;;;;;1.15;0.80;;;18.80;86.10;;;;;;4928297;29;20038;-73
2021/06/15 05:33:07;;;;;;;2.58;1.13;;;18.90;87.50;;;;;;4928018;29;20035;-72
2021/06/15 05:35:34;;;;;;;2.80;0.93;;;18.70;86.50;;;;;;4926086;29;20573;-71
2021/06/15 05:38:01;;;;;;;1.52;0.63;;;18.70;87.40;;;;;;4905918;29;20162;-72
2021/06/15 05:40:29;;;;;;;1.13;0.60;;;18.70;87.80;;;;;;4924027;29;20040;-72
2021/06/15 05:42:56;;;;;;;1.13;0.70;;;18.50;88.30;;;;;;4929434;29;20036;-72
2021/06/15 05:45:24;;;;;;;2.42;0.70;;;18.40;89.00;;;;;;4925979;29;20040;-73
2021/06/15 05:47:51;;;;;;;4.53;0.65;;;18.40;89.40;;;;;;4927977;29;20024;-72
2021/06/15 05:50:19;;;;;;;1.48;0.70;;;18.30;90.00;;;;;;4927306;29;20509;-73
2021/06/15 05:52:46;;;;;;;1.15;0.50;;;18.20;89.60;;;;;;4925633;29;20300;-72
2021/06/15 05:55:14;;;;;;;3.13;0.70;;;18.10;90.10;;;;;;4927789;29;20031;-73
2021/06/15 05:57:42;;;;;;;0.85;0.57;;;17.90;90.30;;;;;;4929773;29;20491;-74
2021/06/15 06:00:11;;;;;;;1.45;0.80;;;17.90;89.90;;;;;;4926354;29;20063;-71
2021/06/15 06:02:38;;;;;;;1.88;0.80;;;17.80;90.10;;;;;;4930881;29;20482;-72
2021/06/15 06:10:25;;;;;;;2.20;0.57;;;17.70;90.30;;;;;;4926754;29;20785;-71
2021/06/15 06:12:53;;;;;;;0.90;0.57;;;17.60;90.50;;;;;;4928562;29;20016;-70
2021/06/15 06:15:20;;;;;;;0.90;0.85;;;17.70;90.60;;;;;;4922795;29;20035;-72
2021/06/15 06:17:48;;;;;;;5.07;0.60;;;17.60;90.50;;;;;;4921910;29;20075;-71
2021/06/15 06:20:18;;;;;;;0.50;0.50;;;17.60;90.90;;;;;;4924851;29;20123;-69
2021/06/15 06:22:45;;;;;;;2.20;0.52;;;17.50;91.00;;;;;;4925275;29;20023;-75
2021/06/15 06:25:14;;;;;;;0.95;0.50;;;17.40;91.10;;;;;;4922490;29;20043;-71
2021/06/15 06:27:42;;;;;;;1.95;0.60;;;17.50;91.10;;;;;;4926113;29;20163;-72
2021/06/15 06:30:10;;;;;;;3.03;1.00;;;17.60;91.10;;;;;;4923768;29;20478;-71
2021/06/15 06:32:38;;;;;;;2.08;0.88;;;17.60;91.10;;;;;;4924585;29;20110;-72
2021/06/15 06:35:06;;;;;;;0.70;0.70;;;17.60;91.20;;;;;;4923866;29;20079;-70
2021/06/15 06:37:35;;;;;;;2.10;0.55;;;17.50;91.40;;;;;;4922749;29;20498;-71
2021/06/15 06:40:05;;;;;;;1.70;0.70;;;17.50;91.60;;;;;;4923566;29;20130;-71
2021/06/15 06:42:33;;;;;;;1.13;0.40;;;17.30;91.80;;;;;;4927430;29;20466;-71
2021/06/15 06:45:00;;;;;;;2.35;0.80;;;17.30;92.00;;;;;;4928272;29;20557;-72
2021/06/15 06:47:27;;;;;;;2.30;1.08;;;17.20;92.30;;;;;;4925622;29;20063;-73
2021/06/15 06:49:55;;;;;;;2.25;0.98;;;17.20;92.60;;;;;;4925379;29;20038;-73
2021/06/15 06:52:22;;;;;;;1.20;0.50;;;17.10;92.80;;;;;;4927760;29;20473;-73
2021/06/15 06:54:49;;;;;;;4.45;1.05;;;17.00;93.00;;;;;;4925726;29;20079;-70
2021/06/15 06:57:17;;;;;;;1.95;1.00;;;16.90;93.50;;;;;;4921695;29;21939;-73
2021/06/15 06:59:44;;;;;;;1.65;0.70;;;16.80;93.90;;;;;;4926664;29;20061;-72
2021/06/15 07:02:11;;;;;;;1.98;0.80;;;16.80;94.00;;;;;;4923559;29;20051;-74
2021/06/15 07:04:39;;;;;;;1.73;0.80;;;16.70;94.10;;;;;;4922051;29;20491;-71
2021/06/15 07:07:07;;;;;;;2.05;1.15;;;16.60;94.40;;;;;;4923344;29;20119;-72
2021/06/15 07:09:35;;;;;;;1.33;1.00;;;16.50;94.50;;;;;;4927386;29;20043;-71
2021/06/15 07:12:02;;;;;;;1.65;1.08;;;16.40;94.70;;;;;;4925263;29;20023;-72
2021/06/15 07:14:30;;;;;;;1.20;0.65;;;16.30;95.10;;;;;;4925219;29;20028;-72
2021/06/15 07:16:57;;;;;;;5.05;0.98;;;16.20;95.20;;;;;;4929331;29;20518;-73
2021/06/15 07:19:25;;;;;;;5.22;1.00;;;16.10;95.50;;;;;;4925586;29;20036;-73
2021/06/15 07:21:52;;;;;;;1.80;1.10;;;16.00;96.00;;;;;;4927598;29;20024;-72
2021/06/15 07:24:20;;;;;;;2.17;1.10;;;15.90;96.10;;;;;;4924371;29;20043;-72
2021/06/15 07:26:47;;;;;;;2.45;1.42;;;16.00;96.20;;;;;;4923625;29;20061;-73
2021/06/15 07:29:14;;;;;;;1.80;1.65;;;15.90;96.30;;;;;;4922824;29;20114;-73
2021/06/15 07:31:42;;;;;;;1.88;1.30;;;16.00;96.40;;;;;;4926738;29;20023;-74
2021/06/15 07:34:09;;;;;;;2.92;1.20;;;16.00;96.50;;;;;;4929703;29;20525;-73
2021/06/15 07:36:37;;;;;;;1.80;1.00;;;16.10;96.40;;;;;;4923114;29;20739;-72
2021/06/15 07:39:04;;;;;;;3.30;1.35;;;16.10;96.30;;;;;;4920855;29;20024;-73
2021/06/15 07:41:32;;;;;;;2.08;1.38;;;16.00;96.30;;;;;;4926604;29;20071;-72
2021/06/15 07:43:59;;;;;;;2.93;1.37;;;16.00;96.30;;;;;;4908078;29;20054;-72
2021/06/15 07:46:27;;;;;;;3.03;2.13;;;15.90;96.30;;;;;;4929955;29;20047;-72
2021/06/15 07:48:54;;;;;;;6.65;1.30;;;15.90;96.40;;;;;;4930033;29;20023;-73
2021/06/15 07:51:22;;;;;;;4.40;1.60;;;15.80;96.70;;;;;;4926985;29;20035;-72
2021/06/15 07:53:49;;;;;;;3.17;1.52;;;15.70;97.00;;;;;;4927496;29;20390;-73
2021/06/15 07:56:17;;;;;;;5.40;2.55;;;15.60;97.10;;;;;;4924635;29;20027;-73
2021/06/15 07:58:45;;;;;;;6.05;3.05;;;15.60;97.20;;;;;;4927340;29;20031;-72
2021/06/15 08:01:12;;;;;;;7.57;2.65;;;15.50;97.30;;;;;;4928038;29;20047;-73
2021/06/15 08:03:40;;;;;;;7.25;3.70;;;15.40;97.60;;;;;;4927418;29;20065;-73
2021/06/15 08:06:09;;;;;;;6.95;3.72;;;15.40;97.80;;;;;;4929093;29;20055;-72
2021/06/15 08:08:37;;;;;;;10.20;4.72;;;15.30;97.80;;;;;;4926246;29;20028;-72
2021/06/15 08:11:04;;;;;;;11.27;6.13;;;15.30;98.00;;;;;;4930808;29;20127;-73
2021/06/15 08:13:32;;;;;;;10.55;5.78;;;15.20;97.90;;;;;;4930518;29;20723;-73
2021/06/15 08:16:00;;;;;;;10.60;5.20;;;15.20;97.80;;;;;;4928469;29;20502;-71
2021/06/15 08:18:27;;;;;;;8.32;5.20;;;15.10;97.80;;;;;;4927885;29;20038;-72
2021/06/15 08:20:55;;;;;;;7.60;5.07;;;15.10;97.90;;;;;;4926621;29;20095;-73
2021/06/15 08:23:23;;;;;;;10.15;4.78;;;15.00;98.10;;;;;;4927939;29;20498;-72
2021/06/15 08:25:51;;;;;;;11.15;4.68;;;15.00;98.20;;;;;;4923841;29;20044;-71
2021/06/15 08:28:19;;;;;;;7.13;4.57;;;14.90;98.10;;;;;;4928270;29;20024;-75
2021/06/15 08:30:47;;;;;;;6.68;4.18;;;14.80;98.10;;;;;;4927967;29;20479;-73
2021/06/15 08:33:16;;;;;;;7.10;4.53;;;14.70;98.20;;;;;;4926808;29;20066;-73
2021/06/15 08:35:43;;;;;;;8.25;4.55;;;14.60;98.30;;;;;;4929683;29;20043;-73
2021/06/15 08:38:11;;;;;;;7.32;4.90;;;14.60;98.60;;;;;;4925497;29;20414;-73
2021/06/15 08:40:38;;;;;;;9.82;5.20;;;14.50;98.70;;;;;;4924226;29;20028;-73
2021/06/15 08:43:05;;;;;;;7.32;4.90;;;14.50;98.60;;;;;;4927508;29;20039;-72
2021/06/15 08:45:33;;;;;;;9.40;5.22;;;14.40;98.60;;;;;;4926548;29;20101;-72
2021/06/15 08:48:00;;;;;;;11.25;5.72;;;14.40;99.00;;;;;;4929099;29;20527;-72
2021/06/15 08:50:29;;;;;;;8.10;5.15;;;14.30;99.10;;;;;;4926231;29;20032;-71
2021/06/15 08:52:57;;;;;;;11.25;6.30;;;14.20;99.10;;;;;;4926043;29;20047;-73
2021/06/15 08:55:30;;;;;;;6.20;4.03;;;14.10;99.20;;;;;;4926205;29;20039;-72
2021/06/15 08:58:28;;;;;;;6.88;5.10;;;14.10;99.40;;;;;;4929950;29;20048;-72
2021/06/15 09:00:56;;;;;;;7.18;4.80;;;14.00;99.30;;;;;;4926347;29;20123;-71
2021/06/15 09:03:24;;;;;;;7.85;4.93;;;14.00;99.60;;;;;;4927138;29;20032;-72
2021/06/15 09:05:51;;;;;;;7.45;5.22;;;13.90;99.50;;;;;;4927820;29;20525;-70
2021/06/15 09:08:19;;;;;;;11.05;5.47;;;13.90;99.30;;;;;;4928155;29;20043;-71
2021/06/15 09:10:48;;;;;;;11.05;6.78;;;13.80;99.60;;;;;;4928515;29;20028;-71
2021/06/15 09:13:34;;;;;;;11.85;8.38;;;13.70;99.60;;;;;;4926229;29;20494;-71
2021/06/15 09:16:02;;;;;;;;;;;13.60;99.60;;;;;;4928267;29;20031;-72
2021/06/15 09:18:30;;;;;;;15.32;9.75;;;13.60;99.90;;;;;;4925837;29;19932;-70
2021/06/15 09:21:05;;;;;;;16.20;10.52;;;13.50;99.90;;;;;;4926549;29;20114;-70
2021/06/15 09:23:37;;;;;;;17.05;9.95;;;13.40;99.90;;;;;;4923210;29;20083;-70
2021/06/15 09:26:06;;;;;;;16.52;11.65;;;13.30;99.80;;;;;;4924442;29;20071;-71
2021/06/15 09:28:34;;;;;;;14.85;10.38;;;13.30;99.80;;;;;;4926111;29;20054;-70
2021/06/15 09:31:05;;;;;;;14.13;9.90;;;13.20;99.90;;;;;;4927312;29;20066;-70
2021/06/15 09:33:42;;;;;;;13.57;9.48;;;13.10;99.90;;;;;;4927445;29;20058;-71
2021/06/15 09:36:30;;;;;;;13.32;8.60;;;13.10;99.90;;;;;;4925993;29;20090;-70
2021/06/15 09:39:04;;;;;;;10.25;7.40;;;13.10;99.90;;;;;;4921242;29;22225;-71
2021/06/15 09:41:47;;;;;;;9.52;7.40;;;13.10;99.90;;;;;;4926831;29;20028;-72
2021/06/15 09:44:26;;;;;;;12.80;7.68;;;13.00;99.90;;;;;;4925972;29;20035;-71
2021/06/15 09:47:02;;;;;;;11.20;7.38;;;13.00;99.90;;;;;;4925572;29;20118;-70
2021/06/15 09:49:41;;;;;;;10.52;7.95;;;13.00;99.90;;;;;;4926296;29;20568;-69
2021/06/15 09:52:10;;;;;;;10.18;6.65;;;12.90;99.90;;;;;;4925839;29;20031;-70
2021/06/15 09:54:59;;;;;;;10.05;6.18;;;12.90;99.90;;;;;;4924947;29;20031;-70
2021/06/15 09:57:37;;;;;;;8.63;5.35;;;12.90;99.90;;;;;;4924464;29;20067;-71
2021/06/15 10:00:17;;;;;;;9.02;5.38;;;12.80;99.90;;;;;;4925617;29;20071;-70
2021/06/15 10:03:02;;;;;;;7.72;5.35;;;12.80;99.90;;;;;;4924212;29;20803;-69
2021/06/15 10:05:37;;;;;;;9.35;6.97;;;12.70;99.90;;;;;;4926448;29;20032;-69
2021/06/15 10:08:07;;;;;;;9.32;6.55;;;12.70;99.90;;;;;;4926269;29;20504;-69
2021/06/15 10:10:41;;;;;;;10.80;6.75;;;12.70;99.90;;;;;;4923895;29;20036;-69
2021/06/15 10:13:09;;;;;;;10.25;5.43;;;12.60;99.90;;;;;;4926160;29;20075;-70
2021/06/15 10:15:39;;;;;;;13.80;6.75;;;12.60;99.90;;;;;;4925546;29;20047;-71
2021/06/15 10:18:07;;;;;;;10.70;7.93;;;12.60;99.90;;;;;;4927121;29;20047;-71
2021/06/15 10:20:37;;;;;;;13.05;5.60;;;12.60;99.90;;;;;;4925487;29;20039;-71
2021/06/15 10:23:06;;;;;;;12.48;5.30;;;12.60;99.90;;;;;;4927117;29;20024;-70
2021/06/15 10:25:35;;;;;;;11.32;5.60;;;12.60;99.90;;;;;;4927879;29;20044;-71
2021/06/15 10:28:13;;;;;;;7.00;5.07;;;12.60;99.90;;;;;;4926273;29;20050;-71
2021/06/15 10:30:43;;;;;;;6.68;4.60;;;12.60;99.90;;;;;;4924321;29;20118;-71
2021/06/15 10:33:21;;;;;;;5.72;4.00;;;12.60;99.90;;;;;;4927386;29;20078;-72
2021/06/15 10:35:58;;;;;;;6.05;3.78;;;12.60;99.90;;;;;;4928327;29;20505;-72
2021/06/15 10:38:28;;;;;;;8.63;4.93;;;12.60;99.90;;;;;;4923169;29;20127;-71
2021/06/15 10:41:00;;;;;;;8.27;3.80;;;12.50;99.90;;;;;;4925312;29;20035;-70
2021/06/15 10:43:37;;;;;;;6.28;4.78;;;12.50;99.90;;;;;;4926538;29;20024;-71
2021/06/15 10:46:23;;;;;;;6.55;4.05;;;12.50;99.90;;;;;;4924524;29;20031;-71
2021/06/15 10:49:15;;;;;;;3.88;2.92;;;12.40;99.90;;;;;;4927058;29;20505;-71
2021/06/15 10:51:51;;;;;;;3.85;2.85;;;12.30;99.90;;;;;;4928251;29;20040;-69
2021/06/15 10:54:43;;;;;;;7.22;3.30;;;12.20;99.90;;;;;;4924335;29;20414;-71
2021/06/15 10:57:15;;;;;;;4.20;3.67;;;12.20;99.90;;;;;;4921391;29;20079;-70
2021/06/15 11:00:05;;;;;;;9.90;3.47;;;12.20;99.90;;;;;;4925543;29;20027;-71
2021/06/15 11:02:33;;;;;;;10.50;6.85;;;12.10;99.90;;;;;;4923625;29;20067;-70
2021/06/15 11:05:40;;;;;;;7.65;4.95;;;12.10;99.90;;;;;;4907352;29;20423;-70
2021/06/15 11:08:31;;;;;;;10.50;6.90;;;12.00;99.90;;;;;;4923994;29;20487;-71
2021/06/15 11:11:02;;;;;;;8.55;6.30;;;11.90;99.90;;;;;;4922840;29;20388;-72
2021/06/15 11:13:41;;;;;;;12.73;6.75;;;11.90;99.90;;;;;;4927434;29;20740;-71
2021/06/15 11:16:21;;;;;;;10.65;6.13;;;11.90;99.90;;;;;;4920632;29;20046;-71
2021/06/15 11:19:14;;;;;;;12.10;7.07;;;11.80;99.90;;;;;;4922008;29;20050;-71
2021/06/15 11:22:20;;;;;;;9.77;5.72;;;11.70;99.90;;;;;;4929398;29;20055;-69
2021/06/15 11:25:00;;;;;;;7.13;5.90;;;11.60;99.90;;;;;;4867974;29;20447;-70
2021/06/15 11:27:27;;;;;;;7.80;5.55;;;11.50;99.90;;;;;;4920642;29;20463;-71
2021/06/15 11:29:57;;;;;;;11.50;6.32;;;11.40;99.90;;;;;;4925082;29;20024;-71
2021/06/15 11:32:28;;;;;;;9.75;5.53;;;11.40;99.90;;;;;;4922618;29;21641;-71
2021/06/15 11:34:56;;;;;;;8.25;5.97;;;11.30;99.90;;;;;;4923685;29;20046;-70
2021/06/15 11:37:28;;;;;;;10.80;5.82;;;11.20;99.90;;;;;;4923751;29;20733;-71
2021/06/15 11:40:16;;;;;;;8.55;5.18;;;11.20;99.90;;;;;;4924128;29;20383;-71
2021/06/15 11:42:52;;;;;;;8.48;5.45;;;11.30;99.90;;;;;;4910483;29;20044;-71
2021/06/15 11:45:22;;;;;;;9.13;5.72;;;11.20;99.90;;;;;;4923820;29;20479;-70
2021/06/15 11:47:55;;;;;;;11.23;6.32;;;11.10;99.90;;;;;;4924249;29;20063;-70
2021/06/15 11:50:28;;;;;;;9.57;6.60;;;11.10;99.90;;;;;;4922520;29;20051;-70
2021/06/15 11:53:11;;;;;;;9.65;5.30;;;11.10;99.90;;;;;;4923496;29;20024;-70
2021/06/15 11:55:46;;;;;;;11.73;6.20;;;11.00;99.90;;;;;;4923394;29;20048;-72
2021/06/15 11:58:18;;;;;;;9.98;6.07;;;11.00;99.90;;;;;;4924256;29;20036;-71
2021/06/15 12:00:52;;;;;;;9.18;5.80;;;11.00;99.90;;;;;;4924362;29;20547;-70
2021/06/15 12:03:21;;;;;;;15.95;6.30;;;11.00;99.90;;;;;;4923609;29;20087;-70
2021/06/15 12:05:53;;;;;;;11.88;7.43;;;11.00;99.90;;;;;;4925550;29;20457;-68
2021/06/15 12:08:21;;;;;;;13.10;9.20;;;10.90;99.90;;;;;;4911810;29;20062;-72
2021/06/15 12:10:50;;;;;;;12.82;9.40;;;10.90;99.90;;;;;;4920307;29;20099;-71
2021/06/15 12:13:29;;;;;;;13.18;8.55;;;10.90;99.90;;;;;;4922902;29;20032;-72
2021/06/15 12:16:01;;;;;;;14.55;8.40;;;10.90;99.90;;;;;;4929129;29;20121;-72
2021/06/15 12:18:28;;;;;;;10.30;7.40;;;10.90;99.90;;;;;;4909770;29;20068;-72
2021/06/15 12:21:02;;;;;;;10.50;7.13;;;10.80;99.90;;;;;;4923661;29;20371;-71
2021/06/15 12:23:39;;;;;;;12.27;7.00;;;10.70;99.90;;;;;;4925107;29;20071;-72
2021/06/15 12:26:08;;;;;;;11.25;7.18;;;10.60;99.90;;;;;;4926139;29;20044;-72
2021/06/15 12:28:39;;;;;;;12.43;6.90;;;10.50;99.90;;;;;;4925715;29;20024;-73
2021/06/15 12:31:12;;;;;;;14.18;7.82;;;10.30;99.90;;;;;;4924842;29;20487;-72
2021/06/15 12:33:42;;;;;;;9.02;6.55;;;10.20;99.90;;;;;;4931529;29;20369;-71
2021/06/15 12:36:12;;;;;;;13.70;8.93;;;10.30;99.90;;;;;;4930121;29;20055;-72
2021/06/15 12:38:41;;;;;;;15.05;8.90;;;10.40;99.90;;;;;;4930634;29;20030;-74
2021/06/15 12:41:11;;;;;;;15.25;8.88;;;10.50;99.90;;;;;;4924882;29;20031;-73
2021/06/15 12:43:39;;;;;;;17.90;9.35;;;10.50;99.90;;;;;;4933609;29;20087;-72
2021/06/15 12:46:18;;;;;;;18.20;9.80;;;10.60;99.90;;;;;;4928689;29;20047;-72
2021/06/15 12:48:52;;;;;;;17.95;9.20;;;10.60;99.90;;;;;;4928253;29;20036;-72
2021/06/15 12:51:25;;;;;;;16.02;8.13;;;10.40;99.90;;;;;;4930705;29;20078;-73
2021/06/15 12:53:52;;;;;;;15.45;7.82;;;10.40;99.90;;;;;;4931895;29;20426;-73
2021/06/15 12:56:28;;;;;;;13.98;9.38;;;10.30;99.90;;;;;;4927712;29;20055;-73
2021/06/15 12:58:56;;;;;;;;;;;10.30;99.90;;;;;;4928019;29;20039;-71
2021/06/15 13:01:36;;;;;;;13.68;8.52;;;10.20;99.90;;;;;;4927798;29;19922;-72
2021/06/15 13:04:29;;;;;;;8.43;6.32;;;10.20;99.90;;;;;;4933691;29;20118;-72
2021/06/15 13:07:00;;;;;;;9.98;6.88;;;10.20;99.90;;;;;;4930303;29;20043;-72
2021/06/15 13:09:29;;;;;;;8.15;6.38;;;10.10;99.90;;;;;;4926360;29;20063;-73
2021/06/15 13:12:09;;;;;;;15.10;7.13;;;10.10;99.90;;;;;;4929756;29;20479;-73
2021/06/15 13:14:44;;;;;;;11.38;7.40;;;10.10;99.90;;;;;;4930047;29;20056;-72